sensor_id;sensor_type;location;lat;lon;timestamp;temperature;humidity
67799;SHT30;54596;43.216;27.904;2023-07-08T00:01:38;24.08;78.63
67799;SHT30;54596;43.216;27.904;2023-07-08T00:04:04;24.06;78.70
67799;SHT30;54596;43.216;27.904;2023-07-08T00:06:30;24.06;78.77
67799;SHT30;54596;43.216;27.904;2023-07-08T00:08:55;24.05;78.79
67799;SHT30;54596;43.216;27.904;2023-07-08T00:11:20;23.93;79.25
67799;SHT30;54596;43.216;27.904;2023-07-08T00:13:46;23.90;79.37
67799;SHT30;54596;43.216;27.904;2023-07-08T00:16:12;23.76;79.58
67799;SHT30;54596;43.216;27.904;2023-07-08T00:18:38;23.75;79.78
67799;SHT30;54596;43.216;27.904;2023-07-08T00:21:04;23.67;79.96
67799;SHT30;54596;43.216;27.904;2023-07-08T00:23:33;23.61;80.21
67799;SHT30;54596;43.216;27.904;2023-07-08T00:26:01;23.58;80.25
67799;SHT30;54596;43.216;27.904;2023-07-08T00:28:26;23.61;80.24
67799;SHT30;54596;43.216;27.904;2023-07-08T00:30:51;23.59;80.35
67799;SHT30;54596;43.216;27.904;2023-07-08T00:33:18;23.53;80.57
67799;SHT30;54596;43.216;27.904;2023-07-08T00:35:43;23.54;80.64
67799;SHT30;54596;43.216;27.904;2023-07-08T00:38:17;23.53;80.67
67799;SHT30;54596;43.216;27.904;2023-07-08T00:40:51;23.58;80.48
67799;SHT30;54596;43.216;27.904;2023-07-08T00:43:17;23.47;80.51
67799;SHT30;54596;43.216;27.904;2023-07-08T00:45:46;23.43;80.80
67799;SHT30;54596;43.216;27.904;2023-07-08T00:48:23;23.40;81.06
67799;SHT30;54596;43.216;27.904;2023-07-08T00:50:48;23.44;80.93
67799;SHT30;54596;43.216;27.904;2023-07-08T00:55:42;23.48;80.77
67799;SHT30;54596;43.216;27.904;2023-07-08T00:58:08;23.47;80.80
67799;SHT30;54596;43.216;27.904;2023-07-08T01:00:33;23.50;80.78
67799;SHT30;54596;43.216;27.904;2023-07-08T01:02:58;23.41;80.81
67799;SHT30;54596;43.216;27.904;2023-07-08T01:05:25;23.41;80.89
67799;SHT30;54596;43.216;27.904;2023-07-08T01:07:51;23.40;80.92
67799;SHT30;54596;43.216;27.904;2023-07-08T01:10:36;23.43;80.83
67799;SHT30;54596;43.216;27.904;2023-07-08T01:13:02;23.37;80.91
67799;SHT30;54596;43.216;27.904;2023-07-08T01:15:34;23.27;81.11
67799;SHT30;54596;43.216;27.904;2023-07-08T01:18:01;23.31;81.12
67799;SHT30;54596;43.216;27.904;2023-07-08T01:20:27;23.16;81.28
67799;SHT30;54596;43.216;27.904;2023-07-08T01:22:52;23.13;81.36
67799;SHT30;54596;43.216;27.904;2023-07-08T01:25:17;23.10;81.42
67799;SHT30;54596;43.216;27.904;2023-07-08T01:27:44;23.06;81.45
67799;SHT30;54596;43.216;27.904;2023-07-08T01:30:12;22.99;81.21
67799;SHT30;54596;43.216;27.904;2023-07-08T01:32:39;22.98;81.24
67799;SHT30;54596;43.216;27.904;2023-07-08T01:35:08;22.98;81.39
67799;SHT30;54596;43.216;27.904;2023-07-08T01:37:38;22.95;81.38
67799;SHT30;54596;43.216;27.904;2023-07-08T01:43:02;22.95;81.28
67799;SHT30;54596;43.216;27.904;2023-07-08T01:45:38;23.03;81.12
67799;SHT30;54596;43.216;27.904;2023-07-08T01:48:11;23.06;81.02
67799;SHT30;54596;43.216;27.904;2023-07-08T01:50:42;23.06;80.96
67799;SHT30;54596;43.216;27.904;2023-07-08T01:53:21;22.96;81.10
67799;SHT30;54596;43.216;27.904;2023-07-08T01:55:47;22.96;81.07
67799;SHT30;54596;43.216;27.904;2023-07-08T01:58:12;22.99;80.94
67799;SHT30;54596;43.216;27.904;2023-07-08T02:00:37;22.98;80.76
67799;SHT30;54596;43.216;27.904;2023-07-08T02:03:03;22.94;80.75
67799;SHT30;54596;43.216;27.904;2023-07-08T02:05:28;22.91;80.71
67799;SHT30;54596;43.216;27.904;2023-07-08T02:07:53;22.82;80.69
67799;SHT30;54596;43.216;27.904;2023-07-08T02:10:20;22.64;80.83
67799;SHT30;54596;43.216;27.904;2023-07-08T02:12:45;22.55;81.40
67799;SHT30;54596;43.216;27.904;2023-07-08T02:15:11;22.58;81.22
67799;SHT30;54596;43.216;27.904;2023-07-08T02:17:36;22.54;81.19
67799;SHT30;54596;43.216;27.904;2023-07-08T02:20:01;22.53;81.09
67799;SHT30;54596;43.216;27.904;2023-07-08T02:22:27;22.57;80.87
67799;SHT30;54596;43.216;27.904;2023-07-08T02:24:53;22.50;80.92
67799;SHT30;54596;43.216;27.904;2023-07-08T02:27:18;22.50;80.98
67799;SHT30;54596;43.216;27.904;2023-07-08T02:29:43;22.40;81.15
67799;SHT30;54596;43.216;27.904;2023-07-08T02:32:09;22.32;81.20
67799;SHT30;54596;43.216;27.904;2023-07-08T02:34:35;22.32;81.25
67799;SHT30;54596;43.216;27.904;2023-07-08T02:37:00;22.33;81.08
67799;SHT30;54596;43.216;27.904;2023-07-08T02:39:25;22.33;81.05
67799;SHT30;54596;43.216;27.904;2023-07-08T02:41:51;22.32;81.11
67799;SHT30;54596;43.216;27.904;2023-07-08T02:44:16;22.17;81.38
67799;SHT30;54596;43.216;27.904;2023-07-08T02:46:41;22.19;81.28
67799;SHT30;54596;43.216;27.904;2023-07-08T02:49:07;22.14;81.28
67799;SHT30;54596;43.216;27.904;2023-07-08T02:51:32;22.16;81.22
67799;SHT30;54596;43.216;27.904;2023-07-08T02:53:57;22.13;81.29
67799;SHT30;54596;43.216;27.904;2023-07-08T02:56:23;22.14;81.28
67799;SHT30;54596;43.216;27.904;2023-07-08T02:58:48;22.16;81.30
67799;SHT30;54596;43.216;27.904;2023-07-08T03:01:14;22.26;81.06
67799;SHT30;54596;43.216;27.904;2023-07-08T03:03:46;22.24;81.02
67799;SHT30;54596;43.216;27.904;2023-07-08T03:06:12;22.30;80.86
67799;SHT30;54596;43.216;27.904;2023-07-08T03:08:37;22.29;80.70
67799;SHT30;54596;43.216;27.904;2023-07-08T03:11:04;22.32;80.66
67799;SHT30;54596;43.216;27.904;2023-07-08T03:13:29;22.34;80.43
67799;SHT30;54596;43.216;27.904;2023-07-08T03:15:55;22.40;80.48
67799;SHT30;54596;43.216;27.904;2023-07-08T03:18:21;22.44;80.42
67799;SHT30;54596;43.216;27.904;2023-07-08T03:20:48;22.47;80.39
67799;SHT30;54596;43.216;27.904;2023-07-08T03:23:14;22.44;80.38
67799;SHT30;54596;43.216;27.904;2023-07-08T03:25:39;22.41;80.56
67799;SHT30;54596;43.216;27.904;2023-07-08T03:28:05;22.48;80.50
67799;SHT30;54596;43.216;27.904;2023-07-08T03:30:39;22.45;80.23
67799;SHT30;54596;43.216;27.904;2023-07-08T03:33:04;22.43;80.30
67799;SHT30;54596;43.216;27.904;2023-07-08T03:35:30;22.41;80.25
67799;SHT30;54596;43.216;27.904;2023-07-08T03:37:55;22.40;80.10
67799;SHT30;54596;43.216;27.904;2023-07-08T03:40:20;22.40;80.10
67799;SHT30;54596;43.216;27.904;2023-07-08T03:42:46;22.44;80.09
67799;SHT30;54596;43.216;27.904;2023-07-08T03:45:11;22.43;79.95
67799;SHT30;54596;43.216;27.904;2023-07-08T03:47:36;22.45;79.98
67799;SHT30;54596;43.216;27.904;2023-07-08T03:50:02;22.34;80.02
67799;SHT30;54596;43.216;27.904;2023-07-08T03:52:27;22.37;80.10
67799;SHT30;54596;43.216;27.904;2023-07-08T03:54:52;22.48;79.91
67799;SHT30;54596;43.216;27.904;2023-07-08T03:57:18;22.44;79.76
67799;SHT30;54596;43.216;27.904;2023-07-08T03:59:43;22.47;79.92
67799;SHT30;54596;43.216;27.904;2023-07-08T04:02:10;22.48;79.96
67799;SHT30;54596;43.216;27.904;2023-07-08T04:04:35;22.54;79.81
67799;SHT30;54596;43.216;27.904;2023-07-08T04:07:03;22.64;79.75
67799;SHT30;54596;43.216;27.904;2023-07-08T04:09:28;22.68;80.03
67799;SHT30;54596;43.216;27.904;2023-07-08T04:11:53;22.65;80.01
67799;SHT30;54596;43.216;27.904;2023-07-08T04:14:19;22.67;80.09
67799;SHT30;54596;43.216;27.904;2023-07-08T04:16:51;22.69;79.67
67799;SHT30;54596;43.216;27.904;2023-07-08T04:19:17;22.75;79.58
67799;SHT30;54596;43.216;27.904;2023-07-08T04:21:43;22.76;79.59
67799;SHT30;54596;43.216;27.904;2023-07-08T04:24:12;22.78;79.65
67799;SHT30;54596;43.216;27.904;2023-07-08T04:26:38;22.71;79.92
67799;SHT30;54596;43.216;27.904;2023-07-08T04:29:06;22.72;79.82
67799;SHT30;54596;43.216;27.904;2023-07-08T04:31:31;22.78;79.66
67799;SHT30;54596;43.216;27.904;2023-07-08T04:33:56;22.73;79.64
67799;SHT30;54596;43.216;27.904;2023-07-08T04:36:22;22.65;79.83
67799;SHT30;54596;43.216;27.904;2023-07-08T04:38:50;22.62;79.81
67799;SHT30;54596;43.216;27.904;2023-07-08T04:41:15;22.57;79.92
67799;SHT30;54596;43.216;27.904;2023-07-08T04:43:40;22.62;79.83
67799;SHT30;54596;43.216;27.904;2023-07-08T04:46:09;22.60;79.93
67799;SHT30;54596;43.216;27.904;2023-07-08T04:48:41;22.65;79.75
67799;SHT30;54596;43.216;27.904;2023-07-08T04:51:07;22.75;79.54
67799;SHT30;54596;43.216;27.904;2023-07-08T04:53:33;22.65;79.71
67799;SHT30;54596;43.216;27.904;2023-07-08T04:55:58;22.76;79.51
67799;SHT30;54596;43.216;27.904;2023-07-08T04:58:24;22.72;79.25
67799;SHT30;54596;43.216;27.904;2023-07-08T05:00:49;22.73;79.19
67799;SHT30;54596;43.216;27.904;2023-07-08T05:03:15;22.75;79.39
67799;SHT30;54596;43.216;27.904;2023-07-08T05:05:40;22.79;78.99
67799;SHT30;54596;43.216;27.904;2023-07-08T05:08:06;22.76;78.78
67799;SHT30;54596;43.216;27.904;2023-07-08T05:10:31;22.68;78.83
67799;SHT30;54596;43.216;27.904;2023-07-08T05:12:57;22.64;78.89
67799;SHT30;54596;43.216;27.904;2023-07-08T05:15:22;22.65;78.70
67799;SHT30;54596;43.216;27.904;2023-07-08T05:17:47;22.69;78.62
67799;SHT30;54596;43.216;27.904;2023-07-08T05:20:15;22.78;78.45
67799;SHT30;54596;43.216;27.904;2023-07-08T05:22:40;22.75;78.26
67799;SHT30;54596;43.216;27.904;2023-07-08T05:25:07;22.78;78.21
67799;SHT30;54596;43.216;27.904;2023-07-08T05:27:33;22.75;77.84
67799;SHT30;54596;43.216;27.904;2023-07-08T05:29:59;22.75;77.82
67799;SHT30;54596;43.216;27.904;2023-07-08T05:32:24;22.79;77.89
67799;SHT30;54596;43.216;27.904;2023-07-08T05:34:51;22.85;77.45
67799;SHT30;54596;43.216;27.904;2023-07-08T05:37:16;22.85;77.43
67799;SHT30;54596;43.216;27.904;2023-07-08T05:39:46;22.89;77.28
67799;SHT30;54596;43.216;27.904;2023-07-08T05:42:11;22.88;77.24
67799;SHT30;54596;43.216;27.904;2023-07-08T05:44:37;23.05;76.97
67799;SHT30;54596;43.216;27.904;2023-07-08T05:47:02;23.19;76.44
67799;SHT30;54596;43.216;27.904;2023-07-08T05:49:27;23.13;76.36
67799;SHT30;54596;43.216;27.904;2023-07-08T05:51:53;23.34;76.00
67799;SHT30;54596;43.216;27.904;2023-07-08T05:54:18;23.44;75.70
67799;SHT30;54596;43.216;27.904;2023-07-08T05:56:43;23.47;75.45
67799;SHT30;54596;43.216;27.904;2023-07-08T05:59:09;23.53;75.25
67799;SHT30;54596;43.216;27.904;2023-07-08T06:01:35;23.37;75.19
67799;SHT30;54596;43.216;27.904;2023-07-08T06:04:00;23.57;74.82
67799;SHT30;54596;43.216;27.904;2023-07-08T06:06:26;23.65;74.42
67799;SHT30;54596;43.216;27.904;2023-07-08T06:08:52;23.67;74.24
67799;SHT30;54596;43.216;27.904;2023-07-08T06:11:17;23.59;74.43
67799;SHT30;54596;43.216;27.904;2023-07-08T06:13:43;23.44;74.61
67799;SHT30;54596;43.216;27.904;2023-07-08T06:16:08;23.47;74.61
67799;SHT30;54596;43.216;27.904;2023-07-08T06:18:34;23.53;74.42
67799;SHT30;54596;43.216;27.904;2023-07-08T06:20:59;23.51;74.52
67799;SHT30;54596;43.216;27.904;2023-07-08T06:23:25;23.51;74.27
67799;SHT30;54596;43.216;27.904;2023-07-08T06:25:51;23.41;74.16
67799;SHT30;54596;43.216;27.904;2023-07-08T06:28:16;23.48;74.21
67799;SHT30;54596;43.216;27.904;2023-07-08T06:30:41;23.47;74.11
67799;SHT30;54596;43.216;27.904;2023-07-08T06:33:07;23.53;74.13
67799;SHT30;54596;43.216;27.904;2023-07-08T06:35:32;23.51;74.33
67799;SHT30;54596;43.216;27.904;2023-07-08T06:37:58;23.61;74.33
67799;SHT30;54596;43.216;27.904;2023-07-08T06:40:23;23.71;73.80
67799;SHT30;54596;43.216;27.904;2023-07-08T06:42:49;23.69;73.33
67799;SHT30;54596;43.216;27.904;2023-07-08T06:45:14;23.79;73.35
67799;SHT30;54596;43.216;27.904;2023-07-08T06:47:39;23.79;73.21
67799;SHT30;54596;43.216;27.904;2023-07-08T06:50:05;23.79;73.26
67799;SHT30;54596;43.216;27.904;2023-07-08T06:52:31;23.90;73.26
67799;SHT30;54596;43.216;27.904;2023-07-08T06:55:03;24.01;73.16
67799;SHT30;54596;43.216;27.904;2023-07-08T06:57:28;24.09;72.96
67799;SHT30;54596;43.216;27.904;2023-07-08T06:59:54;24.06;72.83
67799;SHT30;54596;43.216;27.904;2023-07-08T07:02:19;24.13;72.99
67799;SHT30;54596;43.216;27.904;2023-07-08T07:04:45;24.14;73.12
67799;SHT30;54596;43.216;27.904;2023-07-08T07:07:10;24.29;73.09
67799;SHT30;54596;43.216;27.904;2023-07-08T07:09:35;24.17;73.01
67799;SHT30;54596;43.216;27.904;2023-07-08T07:12:01;24.34;72.71
67799;SHT30;54596;43.216;27.904;2023-07-08T07:14:26;24.47;72.21
67799;SHT30;54596;43.216;27.904;2023-07-08T07:16:51;24.51;72.27
67799;SHT30;54596;43.216;27.904;2023-07-08T07:19:17;24.55;72.18
67799;SHT30;54596;43.216;27.904;2023-07-08T07:21:42;24.71;72.09
67799;SHT30;54596;43.216;27.904;2023-07-08T07:24:07;24.81;72.21
67799;SHT30;54596;43.216;27.904;2023-07-08T07:26:33;24.85;72.11
67799;SHT30;54596;43.216;27.904;2023-07-08T07:28:58;25.06;71.65
67799;SHT30;54596;43.216;27.904;2023-07-08T07:31:23;25.19;71.36
67799;SHT30;54596;43.216;27.904;2023-07-08T07:33:49;25.09;71.72
67799;SHT30;54596;43.216;27.904;2023-07-08T07:36:15;25.41;71.27
67799;SHT30;54596;43.216;27.904;2023-07-08T07:38:40;26.57;69.43
67799;SHT30;54596;43.216;27.904;2023-07-08T07:41:05;27.65;66.23
67799;SHT30;54596;43.216;27.904;2023-07-08T07:43:32;26.98;67.42
67799;SHT30;54596;43.216;27.904;2023-07-08T07:45:57;26.92;66.83
67799;SHT30;54596;43.216;27.904;2023-07-08T07:48:23;27.16;65.28
67799;SHT30;54596;43.216;27.904;2023-07-08T07:50:49;27.14;64.76
67799;SHT30;54596;43.216;27.904;2023-07-08T07:53:16;26.88;64.37
67799;SHT30;54596;43.216;27.904;2023-07-08T07:55:41;26.89;64.36
67799;SHT30;54596;43.216;27.904;2023-07-08T07:58:07;26.82;63.99
67799;SHT30;54596;43.216;27.904;2023-07-08T08:00:33;27.16;63.09
67799;SHT30;54596;43.216;27.904;2023-07-08T08:02:58;27.90;61.72
67799;SHT30;54596;43.216;27.904;2023-07-08T08:05:24;27.47;62.40
67799;SHT30;54596;43.216;27.904;2023-07-08T08:07:49;27.11;63.20
67799;SHT30;54596;43.216;27.904;2023-07-08T08:10:14;26.81;63.90
67799;SHT30;54596;43.216;27.904;2023-07-08T08:12:40;26.26;64.95
67799;SHT30;54596;43.216;27.904;2023-07-08T08:15:05;26.07;65.86
67799;SHT30;54596;43.216;27.904;2023-07-08T08:17:31;25.84;66.45
67799;SHT30;54596;43.216;27.904;2023-07-08T08:19:56;25.76;66.89
67799;SHT30;54596;43.216;27.904;2023-07-08T08:22:21;25.51;67.68
67799;SHT30;54596;43.216;27.904;2023-07-08T08:24:47;25.48;67.96
67799;SHT30;54596;43.216;27.904;2023-07-08T08:27:12;25.50;67.76
67799;SHT30;54596;43.216;27.904;2023-07-08T08:29:37;25.34;67.95
67799;SHT30;54596;43.216;27.904;2023-07-08T08:32:03;25.33;67.95
67799;SHT30;54596;43.216;27.904;2023-07-08T08:34:29;25.40;68.03
67799;SHT30;54596;43.216;27.904;2023-07-08T08:36:54;25.48;68.04
67799;SHT30;54596;43.216;27.904;2023-07-08T08:39:20;25.57;68.00
67799;SHT30;54596;43.216;27.904;2023-07-08T08:41:46;25.61;67.49
67799;SHT30;54596;43.216;27.904;2023-07-08T08:44:15;25.64;67.37
67799;SHT30;54596;43.216;27.904;2023-07-08T08:46:45;25.67;67.34
67799;SHT30;54596;43.216;27.904;2023-07-08T08:52:11;25.47;67.76
67799;SHT30;54596;43.216;27.904;2023-07-08T08:54:36;25.60;67.86
67799;SHT30;54596;43.216;27.904;2023-07-08T08:57:06;25.71;67.19
67799;SHT30;54596;43.216;27.904;2023-07-08T08:59:38;25.62;67.26
67799;SHT30;54596;43.216;27.904;2023-07-08T09:04:43;25.54;66.15
67799;SHT30;54596;43.216;27.904;2023-07-08T09:07:12;25.71;65.87
67799;SHT30;54596;43.216;27.904;2023-07-08T09:09:39;26.00;65.47
67799;SHT30;54596;43.216;27.904;2023-07-08T09:12:08;26.14;65.69
67799;SHT30;54596;43.216;27.904;2023-07-08T09:14:35;26.07;65.43
67799;SHT30;54596;43.216;27.904;2023-07-08T09:19:35;26.29;65.22
67799;SHT30;54596;43.216;27.904;2023-07-08T09:25:11;26.51;63.76
67799;SHT30;54596;43.216;27.904;2023-07-08T09:27:43;26.74;63.43
67799;SHT30;54596;43.216;27.904;2023-07-08T09:30:15;26.76;63.41
67799;SHT30;54596;43.216;27.904;2023-07-08T09:32:40;26.71;63.71
67799;SHT30;54596;43.216;27.904;2023-07-08T09:35:06;26.81;63.60
67799;SHT30;54596;43.216;27.904;2023-07-08T09:37:33;26.79;63.36
67799;SHT30;54596;43.216;27.904;2023-07-08T09:39:59;26.59;63.79
67799;SHT30;54596;43.216;27.904;2023-07-08T09:42:27;26.34;64.06
67799;SHT30;54596;43.216;27.904;2023-07-08T09:44:56;26.48;63.84
67799;SHT30;54596;43.216;27.904;2023-07-08T09:47:23;26.54;63.48
67799;SHT30;54596;43.216;27.904;2023-07-08T09:49:50;26.61;63.60
67799;SHT30;54596;43.216;27.904;2023-07-08T09:52:16;26.79;63.14
67799;SHT30;54596;43.216;27.904;2023-07-08T09:54:41;26.89;62.19
67799;SHT30;54596;43.216;27.904;2023-07-08T09:59:46;27.29;61.87
67799;SHT30;54596;43.216;27.904;2023-07-08T10:02:24;27.27;61.81
67799;SHT30;54596;43.216;27.904;2023-07-08T10:04:54;27.38;61.84
67799;SHT30;54596;43.216;27.904;2023-07-08T10:07:20;27.40;61.68
67799;SHT30;54596;43.216;27.904;2023-07-08T10:09:50;27.40;61.93
67799;SHT30;54596;43.216;27.904;2023-07-08T10:12:16;27.24;61.69
67799;SHT30;54596;43.216;27.904;2023-07-08T10:14:44;27.04;61.54
67799;SHT30;54596;43.216;27.904;2023-07-08T10:17:13;27.26;61.36
67799;SHT30;54596;43.216;27.904;2023-07-08T10:19:40;27.37;60.94
67799;SHT30;54596;43.216;27.904;2023-07-08T10:30:11;27.27;60.49
67799;SHT30;54596;43.216;27.904;2023-07-08T10:35:33;27.20;60.92
67799;SHT30;54596;43.216;27.904;2023-07-08T10:40:30;27.10;61.39
67799;SHT30;54596;43.216;27.904;2023-07-08T10:43:12;27.04;61.75
67799;SHT30;54596;43.216;27.904;2023-07-08T10:55:40;26.30;62.98
67799;SHT30;54596;43.216;27.904;2023-07-08T11:06:40;26.31;63.25
67799;SHT30;54596;43.216;27.904;2023-07-08T11:09:09;26.09;63.82
67799;SHT30;54596;43.216;27.904;2023-07-08T11:14:37;25.89;64.13
67799;SHT30;54596;43.216;27.904;2023-07-08T11:17:23;26.09;63.89
67799;SHT30;54596;43.216;27.904;2023-07-08T11:20:02;26.20;63.58
67799;SHT30;54596;43.216;27.904;2023-07-08T11:22:29;26.00;63.72
67799;SHT30;54596;43.216;27.904;2023-07-08T11:24:56;25.92;64.02
67799;SHT30;54596;43.216;27.904;2023-07-08T11:27:26;26.07;63.92
67799;SHT30;54596;43.216;27.904;2023-07-08T11:32:19;26.31;63.52
67799;SHT30;54596;43.216;27.904;2023-07-08T11:34:46;26.14;63.51
67799;SHT30;54596;43.216;27.904;2023-07-08T11:37:12;26.23;63.32
67799;SHT30;54596;43.216;27.904;2023-07-08T11:39:39;26.13;63.62
67799;SHT30;54596;43.216;27.904;2023-07-08T11:44:34;26.04;63.78
67799;SHT30;54596;43.216;27.904;2023-07-08T11:46:59;25.86;63.97
67799;SHT30;54596;43.216;27.904;2023-07-08T11:49:25;25.64;64.42
67799;SHT30;54596;43.216;27.904;2023-07-08T11:51:50;26.03;64.12
67799;SHT30;54596;43.216;27.904;2023-07-08T11:54:26;26.27;63.51
67799;SHT30;54596;43.216;27.904;2023-07-08T11:59:20;26.55;62.42
67799;SHT30;54596;43.216;27.904;2023-07-08T12:04:29;26.52;62.45
67799;SHT30;54596;43.216;27.904;2023-07-08T12:10:04;26.47;62.28
67799;SHT30;54596;43.216;27.904;2023-07-08T12:12:28;26.36;62.34
67799;SHT30;54596;43.216;27.904;2023-07-08T12:15:18;26.49;62.16
67799;SHT30;54596;43.216;27.904;2023-07-08T12:17:40;26.44;62.38
67799;SHT30;54596;43.216;27.904;2023-07-08T12:20:15;26.27;62.08
67799;SHT30;54596;43.216;27.904;2023-07-08T12:22:41;26.19;62.06
67799;SHT30;54596;43.216;27.904;2023-07-08T12:25:09;26.21;62.17
67799;SHT30;54596;43.216;27.904;2023-07-08T12:27:37;25.81;63.22
67799;SHT30;54596;43.216;27.904;2023-07-08T12:30:02;26.02;63.02
67799;SHT30;54596;43.216;27.904;2023-07-08T12:32:28;26.27;62.52
67799;SHT30;54596;43.216;27.904;2023-07-08T12:34:53;26.52;61.89
67799;SHT30;54596;43.216;27.904;2023-07-08T12:37:19;26.67;61.10
67799;SHT30;54596;43.216;27.904;2023-07-08T12:39:44;26.64;60.78
67799;SHT30;54596;43.216;27.904;2023-07-08T12:42:18;26.59;60.37
67799;SHT30;54596;43.216;27.904;2023-07-08T12:44:43;26.62;60.36
67799;SHT30;54596;43.216;27.904;2023-07-08T12:47:09;26.45;60.28
67799;SHT30;54596;43.216;27.904;2023-07-08T12:49:34;26.36;60.75
67799;SHT30;54596;43.216;27.904;2023-07-08T12:52:00;26.59;60.55
67799;SHT30;54596;43.216;27.904;2023-07-08T12:54:27;26.47;60.25
67799;SHT30;54596;43.216;27.904;2023-07-08T12:56:53;26.45;60.24
67799;SHT30;54596;43.216;27.904;2023-07-08T12:59:19;26.58;60.26
67799;SHT30;54596;43.216;27.904;2023-07-08T13:02:08;26.37;60.72
67799;SHT30;54596;43.216;27.904;2023-07-08T13:04:40;26.51;60.40
67799;SHT30;54596;43.216;27.904;2023-07-08T13:07:07;26.81;60.05
67799;SHT30;54596;43.216;27.904;2023-07-08T13:09:42;26.88;59.81
67799;SHT30;54596;43.216;27.904;2023-07-08T13:12:19;26.36;60.51
67799;SHT30;54596;43.216;27.904;2023-07-08T13:14:50;26.43;60.76
67799;SHT30;54596;43.216;27.904;2023-07-08T13:17:16;26.23;60.86
67799;SHT30;54596;43.216;27.904;2023-07-08T13:19:42;26.37;60.62
67799;SHT30;54596;43.216;27.904;2023-07-08T13:22:10;26.34;60.84
67799;SHT30;54596;43.216;27.904;2023-07-08T13:24:37;26.19;60.95
67799;SHT30;54596;43.216;27.904;2023-07-08T13:27:04;26.29;61.18
67799;SHT30;54596;43.216;27.904;2023-07-08T13:29:34;26.14;60.83
67799;SHT30;54596;43.216;27.904;2023-07-08T13:32:03;26.16;60.93
67799;SHT30;54596;43.216;27.904;2023-07-08T13:34:30;26.03;60.98
67799;SHT30;54596;43.216;27.904;2023-07-08T13:36:57;26.10;60.95
67799;SHT30;54596;43.216;27.904;2023-07-08T13:39:24;26.17;60.82
67799;SHT30;54596;43.216;27.904;2023-07-08T13:41:51;26.21;60.54
67799;SHT30;54596;43.216;27.904;2023-07-08T13:44:16;26.19;60.49
67799;SHT30;54596;43.216;27.904;2023-07-08T13:46:52;26.26;59.87
67799;SHT30;54596;43.216;27.904;2023-07-08T13:49:25;26.27;59.64
67799;SHT30;54596;43.216;27.904;2023-07-08T13:51:55;26.36;59.37
67799;SHT30;54596;43.216;27.904;2023-07-08T13:54:42;26.30;59.47
67799;SHT30;54596;43.216;27.904;2023-07-08T13:57:12;26.24;59.19
67799;SHT30;54596;43.216;27.904;2023-07-08T13:59:38;26.24;59.37
67799;SHT30;54596;43.216;27.904;2023-07-08T14:02:08;26.17;59.46
67799;SHT30;54596;43.216;27.904;2023-07-08T14:04:38;26.20;59.46
67799;SHT30;54596;43.216;27.904;2023-07-08T14:07:04;26.12;59.48
67799;SHT30;54596;43.216;27.904;2023-07-08T14:09:30;26.07;59.55
67799;SHT30;54596;43.216;27.904;2023-07-08T14:11:55;25.81;59.97
67799;SHT30;54596;43.216;27.904;2023-07-08T14:14:20;25.71;60.08
67799;SHT30;54596;43.216;27.904;2023-07-08T14:16:47;25.61;60.54
67799;SHT30;54596;43.216;27.904;2023-07-08T14:19:15;25.51;60.51
67799;SHT30;54596;43.216;27.904;2023-07-08T14:21:42;25.50;60.55
67799;SHT30;54596;43.216;27.904;2023-07-08T14:24:16;25.44;60.53
67799;SHT30;54596;43.216;27.904;2023-07-08T14:26:42;25.27;60.66
67799;SHT30;54596;43.216;27.904;2023-07-08T14:29:08;25.26;60.76
67799;SHT30;54596;43.216;27.904;2023-07-08T14:31:33;25.10;60.56
67799;SHT30;54596;43.216;27.904;2023-07-08T14:34:02;24.98;60.82
67799;SHT30;54596;43.216;27.904;2023-07-08T14:36:28;24.99;60.81
67799;SHT30;54596;43.216;27.904;2023-07-08T14:38:53;24.93;60.82
67799;SHT30;54596;43.216;27.904;2023-07-08T14:41:19;24.81;60.88
67799;SHT30;54596;43.216;27.904;2023-07-08T14:43:44;24.85;61.01
67799;SHT30;54596;43.216;27.904;2023-07-08T14:46:09;24.79;61.07
67799;SHT30;54596;43.216;27.904;2023-07-08T14:48:35;24.85;61.05
67799;SHT30;54596;43.216;27.904;2023-07-08T14:51:00;24.96;61.19
67799;SHT30;54596;43.216;27.904;2023-07-08T14:53:26;24.90;61.22
67799;SHT30;54596;43.216;27.904;2023-07-08T14:55:52;24.82;61.17
67799;SHT30;54596;43.216;27.904;2023-07-08T14:58:30;24.81;61.20
67799;SHT30;54596;43.216;27.904;2023-07-08T15:00:57;24.82;61.18
67799;SHT30;54596;43.216;27.904;2023-07-08T15:03:24;24.83;60.89
67799;SHT30;54596;43.216;27.904;2023-07-08T15:05:49;24.88;60.89
67799;SHT30;54596;43.216;27.904;2023-07-08T15:08:15;24.89;60.72
67799;SHT30;54596;43.216;27.904;2023-07-08T15:10:41;25.00;60.64
67799;SHT30;54596;43.216;27.904;2023-07-08T15:13:09;25.07;60.27
67799;SHT30;54596;43.216;27.904;2023-07-08T15:15:35;25.09;60.35
67799;SHT30;54596;43.216;27.904;2023-07-08T15:18:01;25.06;60.24
67799;SHT30;54596;43.216;27.904;2023-07-08T15:20:31;25.10;60.22
67799;SHT30;54596;43.216;27.904;2023-07-08T15:22:57;25.19;60.09
67799;SHT30;54596;43.216;27.904;2023-07-08T15:25:22;25.27;59.94
67799;SHT30;54596;43.216;27.904;2023-07-08T15:27:50;25.12;59.49
67799;SHT30;54596;43.216;27.904;2023-07-08T15:30:17;25.13;59.61
67799;SHT30;54596;43.216;27.904;2023-07-08T15:32:43;25.17;59.59
67799;SHT30;54596;43.216;27.904;2023-07-08T15:35:18;25.15;59.75
67799;SHT30;54596;43.216;27.904;2023-07-08T15:37:44;25.22;60.00
67799;SHT30;54596;43.216;27.904;2023-07-08T15:40:11;25.24;59.88
67799;SHT30;54596;43.216;27.904;2023-07-08T15:42:37;25.20;59.75
67799;SHT30;54596;43.216;27.904;2023-07-08T15:45:14;25.19;59.82
67799;SHT30;54596;43.216;27.904;2023-07-08T15:47:41;24.89;60.43
67799;SHT30;54596;43.216;27.904;2023-07-08T15:50:10;24.76;60.73
67799;SHT30;54596;43.216;27.904;2023-07-08T15:52:36;24.72;60.79
67799;SHT30;54596;43.216;27.904;2023-07-08T15:55:01;24.67;60.72
67799;SHT30;54596;43.216;27.904;2023-07-08T15:57:26;24.38;61.24
67799;SHT30;54596;43.216;27.904;2023-07-08T15:59:52;24.40;61.37
67799;SHT30;54596;43.216;27.904;2023-07-08T16:02:24;24.33;61.60
67799;SHT30;54596;43.216;27.904;2023-07-08T16:04:50;24.01;62.36
67799;SHT30;54596;43.216;27.904;2023-07-08T16:07:15;23.95;62.55
67799;SHT30;54596;43.216;27.904;2023-07-08T16:09:41;23.98;62.43
67799;SHT30;54596;43.216;27.904;2023-07-08T16:12:07;23.92;62.63
67799;SHT30;54596;43.216;27.904;2023-07-08T16:14:34;23.74;63.11
67799;SHT30;54596;43.216;27.904;2023-07-08T16:16:59;23.81;63.10
67799;SHT30;54596;43.216;27.904;2023-07-08T16:19:24;23.88;63.02
67799;SHT30;54596;43.216;27.904;2023-07-08T16:21:50;23.85;63.17